sensor_id;sensor_type;location;lat;lon;timestamp;P1;durP1;ratioP1;P2;durP2;ratioP2
46835;SDS011;32573;51.290;6.926;2023-07-30T00:00:22;2.45;;;1.00;;
46835;SDS011;32573;51.290;6.926;2023-07-30T00:02:51;2.92;;;1.30;;
46835;SDS011;32573;51.290;6.926;2023-07-30T00:05:20;2.45;;;1.15;;
46835;SDS011;32573;51.290;6.926;2023-07-30T00:07:49;2.45;;;1.10;;
46835;SDS011;32573;51.290;6.926;2023-07-30T00:10:18;2.38;;;1.10;;
46835;SDS011;32573;51.290;6.926;2023-07-30T00:12:46;3.10;;;1.13;;
46835;SDS011;32573;51.290;6.926;2023-07-30T00:15:15;2.88;;;1.00;;
46835;SDS011;32573;51.290;6.926;2023-07-30T00:17:43;2.25;;;1.00;;
46835;SDS011;32573;51.290;6.926;2023-07-30T00:20:12;4.88;;;1.15;;
46835;SDS011;32573;51.290;6.926;2023-07-30T00:22:40;1.95;;;0.90;;
46835;SDS011;32573;51.290;6.926;2023-07-30T00:25:10;2.53;;;1.08;;
46835;SDS011;32573;51.290;6.926;2023-07-30T00:27:39;2.00;;;1.10;;
46835;SDS011;32573;51.290;6.926;2023-07-30T00:30:09;2.83;;;1.17;;
46835;SDS011;32573;51.290;6.926;2023-07-30T00:32:38;2.92;;;1.25;;
46835;SDS011;32573;51.290;6.926;2023-07-30T00:35:11;2.63;;;1.10;;
46835;SDS011;32573;51.290;6.926;2023-07-30T00:37:40;2.72;;;1.20;;
46835;SDS011;32573;51.290;6.926;2023-07-30T00:40:09;2.42;;;1.00;;
46835;SDS011;32573;51.290;6.926;2023-07-30T00:42:39;3.45;;;1.02;;
46835;SDS011;32573;51.290;6.926;2023-07-30T00:45:09;3.47;;;1.20;;
46835;SDS011;32573;51.290;6.926;2023-07-30T00:47:38;2.38;;;1.10;;
46835;SDS011;32573;51.290;6.926;2023-07-30T00:50:07;3.08;;;1.10;;
46835;SDS011;32573;51.290;6.926;2023-07-30T00:52:36;2.03;;;1.00;;
46835;SDS011;32573;51.290;6.926;2023-07-30T00:55:06;3.10;;;1.20;;
46835;SDS011;32573;51.290;6.926;2023-07-30T00:57:37;2.40;;;1.10;;
46835;SDS011;32573;51.290;6.926;2023-07-30T01:00:06;2.92;;;1.20;;
46835;SDS011;32573;51.290;6.926;2023-07-30T01:02:36;2.40;;;1.13;;
46835;SDS011;32573;51.290;6.926;2023-07-30T01:05:05;2.75;;;1.20;;
46835;SDS011;32573;51.290;6.926;2023-07-30T01:07:34;2.63;;;1.20;;
46835;SDS011;32573;51.290;6.926;2023-07-30T01:10:02;2.10;;;1.00;;
46835;SDS011;32573;51.290;6.926;2023-07-30T01:12:32;3.33;;;1.30;;
46835;SDS011;32573;51.290;6.926;2023-07-30T01:15:04;2.53;;;1.17;;
46835;SDS011;32573;51.290;6.926;2023-07-30T01:17:35;2.22;;;0.98;;
46835;SDS011;32573;51.290;6.926;2023-07-30T01:20:04;2.30;;;1.15;;
46835;SDS011;32573;51.290;6.926;2023-07-30T01:22:35;3.20;;;1.20;;
46835;SDS011;32573;51.290;6.926;2023-07-30T01:25:04;2.78;;;1.15;;
46835;SDS011;32573;51.290;6.926;2023-07-30T01:27:36;2.53;;;1.10;;
46835;SDS011;32573;51.290;6.926;2023-07-30T01:30:09;2.42;;;1.10;;
46835;SDS011;32573;51.290;6.926;2023-07-30T01:32:43;2.28;;;1.10;;
46835;SDS011;32573;51.290;6.926;2023-07-30T01:35:13;2.92;;;1.20;;
46835;SDS011;32573;51.290;6.926;2023-07-30T01:37:43;3.70;;;1.42;;
46835;SDS011;32573;51.290;6.926;2023-07-30T01:40:12;2.50;;;1.17;;
46835;SDS011;32573;51.290;6.926;2023-07-30T01:42:42;2.95;;;1.25;;
46835;SDS011;32573;51.290;6.926;2023-07-30T01:45:10;2.67;;;1.13;;
46835;SDS011;32573;51.290;6.926;2023-07-30T01:47:39;2.95;;;1.10;;
46835;SDS011;32573;51.290;6.926;2023-07-30T01:50:08;3.17;;;1.10;;
46835;SDS011;32573;51.290;6.926;2023-07-30T01:52:37;2.63;;;1.10;;
46835;SDS011;32573;51.290;6.926;2023-07-30T01:55:07;3.03;;;1.20;;
46835;SDS011;32573;51.290;6.926;2023-07-30T01:57:36;3.65;;;1.10;;
46835;SDS011;32573;51.290;6.926;2023-07-30T02:00:06;2.50;;;1.17;;
46835;SDS011;32573;51.290;6.926;2023-07-30T02:02:35;3.30;;;1.20;;
46835;SDS011;32573;51.290;6.926;2023-07-30T02:05:04;3.35;;;1.30;;
46835;SDS011;32573;51.290;6.926;2023-07-30T02:07:33;2.95;;;1.30;;
46835;SDS011;32573;51.290;6.926;2023-07-30T02:10:01;2.95;;;1.20;;
46835;SDS011;32573;51.290;6.926;2023-07-30T02:12:32;2.47;;;1.27;;
46835;SDS011;32573;51.290;6.926;2023-07-30T02:15:00;2.67;;;1.25;;
46835;SDS011;32573;51.290;6.926;2023-07-30T02:17:29;3.45;;;1.38;;
46835;SDS011;32573;51.290;6.926;2023-07-30T02:19:57;2.50;;;1.10;;
46835;SDS011;32573;51.290;6.926;2023-07-30T02:22:26;2.28;;;1.00;;
46835;SDS011;32573;51.290;6.926;2023-07-30T02:24:54;2.38;;;1.10;;
46835;SDS011;32573;51.290;6.926;2023-07-30T02:27:24;3.15;;;1.33;;
46835;SDS011;32573;51.290;6.926;2023-07-30T02:29:54;2.38;;;1.10;;
46835;SDS011;32573;51.290;6.926;2023-07-30T02:32:22;3.25;;;1.17;;
46835;SDS011;32573;51.290;6.926;2023-07-30T02:34:51;2.33;;;1.02;;
46835;SDS011;32573;51.290;6.926;2023-07-30T02:37:19;3.13;;;1.23;;
46835;SDS011;32573;51.290;6.926;2023-07-30T02:39:48;2.83;;;1.10;;
46835;SDS011;32573;51.290;6.926;2023-07-30T02:42:16;2.63;;;1.17;;
46835;SDS011;32573;51.290;6.926;2023-07-30T02:44:45;2.53;;;1.20;;
46835;SDS011;32573;51.290;6.926;2023-07-30T02:47:14;3.08;;;1.30;;
46835;SDS011;32573;51.290;6.926;2023-07-30T02:49:43;2.65;;;1.20;;
46835;SDS011;32573;51.290;6.926;2023-07-30T02:52:12;3.15;;;1.20;;
46835;SDS011;32573;51.290;6.926;2023-07-30T02:54:40;3.35;;;1.25;;
46835;SDS011;32573;51.290;6.926;2023-07-30T02:57:08;2.92;;;1.30;;
46835;SDS011;32573;51.290;6.926;2023-07-30T02:59:38;3.20;;;1.30;;
46835;SDS011;32573;51.290;6.926;2023-07-30T03:02:08;4.82;;;1.23;;
46835;SDS011;32573;51.290;6.926;2023-07-30T03:04:38;3.70;;;1.20;;
46835;SDS011;32573;51.290;6.926;2023-07-30T03:07:06;3.38;;;1.17;;
46835;SDS011;32573;51.290;6.926;2023-07-30T03:09:35;2.65;;;1.20;;
46835;SDS011;32573;51.290;6.926;2023-07-30T03:12:04;2.92;;;1.10;;
46835;SDS011;32573;51.290;6.926;2023-07-30T03:14:33;3.00;;;1.10;;
46835;SDS011;32573;51.290;6.926;2023-07-30T03:17:02;3.72;;;1.10;;
46835;SDS011;32573;51.290;6.926;2023-07-30T03:19:32;2.42;;;1.08;;
46835;SDS011;32573;51.290;6.926;2023-07-30T03:22:03;3.22;;;1.08;;
46835;SDS011;32573;51.290;6.926;2023-07-30T03:24:31;3.05;;;1.30;;
46835;SDS011;32573;51.290;6.926;2023-07-30T03:27:00;2.75;;;1.20;;
46835;SDS011;32573;51.290;6.926;2023-07-30T03:29:28;3.00;;;1.15;;
46835;SDS011;32573;51.290;6.926;2023-07-30T03:31:57;2.90;;;1.20;;
46835;SDS011;32573;51.290;6.926;2023-07-30T03:34:25;2.83;;;1.20;;
46835;SDS011;32573;51.290;6.926;2023-07-30T03:36:54;2.67;;;1.30;;
46835;SDS011;32573;51.290;6.926;2023-07-30T03:39:27;3.13;;;1.30;;
46835;SDS011;32573;51.290;6.926;2023-07-30T03:41:55;3.03;;;1.23;;
46835;SDS011;32573;51.290;6.926;2023-07-30T03:44:24;3.03;;;1.27;;
46835;SDS011;32573;51.290;6.926;2023-07-30T03:46:52;3.42;;;1.48;;
46835;SDS011;32573;51.290;6.926;2023-07-30T03:49:20;2.85;;;1.27;;
46835;SDS011;32573;51.290;6.926;2023-07-30T03:51:48;2.25;;;1.13;;
46835;SDS011;32573;51.290;6.926;2023-07-30T03:54:17;2.78;;;1.05;;
46835;SDS011;32573;51.290;6.926;2023-07-30T03:56:47;3.55;;;1.20;;
46835;SDS011;32573;51.290;6.926;2023-07-30T03:59:15;4.28;;;1.27;;
46835;SDS011;32573;51.290;6.926;2023-07-30T04:01:44;2.88;;;1.20;;
46835;SDS011;32573;51.290;6.926;2023-07-30T04:04:12;3.40;;;1.45;;
46835;SDS011;32573;51.290;6.926;2023-07-30T04:06:41;3.00;;;1.20;;
46835;SDS011;32573;51.290;6.926;2023-07-30T04:09:09;3.17;;;1.27;;
46835;SDS011;32573;51.290;6.926;2023-07-30T04:11:38;2.90;;;1.20;;
46835;SDS011;32573;51.290;6.926;2023-07-30T04:14:08;4.03;;;1.10;;
46835;SDS011;32573;51.290;6.926;2023-07-30T04:16:36;3.50;;;1.20;;
46835;SDS011;32573;51.290;6.926;2023-07-30T04:19:05;3.88;;;1.60;;
46835;SDS011;32573;51.290;6.926;2023-07-30T04:21:33;2.75;;;1.20;;
46835;SDS011;32573;51.290;6.926;2023-07-30T04:24:02;2.72;;;1.20;;
46835;SDS011;32573;51.290;6.926;2023-07-30T04:26:31;2.75;;;1.25;;
46835;SDS011;32573;51.290;6.926;2023-07-30T04:28:59;3.63;;;1.38;;
46835;SDS011;32573;51.290;6.926;2023-07-30T04:31:29;2.88;;;1.17;;
46835;SDS011;32573;51.290;6.926;2023-07-30T04:33:59;3.97;;;1.45;;
46835;SDS011;32573;51.290;6.926;2023-07-30T04:36:27;2.15;;;1.10;;
46835;SDS011;32573;51.290;6.926;2023-07-30T04:38:56;3.78;;;1.27;;
46835;SDS011;32573;51.290;6.926;2023-07-30T04:41:30;2.63;;;1.30;;
46835;SDS011;32573;51.290;6.926;2023-07-30T04:44:03;2.88;;;1.15;;
46835;SDS011;32573;51.290;6.926;2023-07-30T04:46:33;3.40;;;1.15;;
46835;SDS011;32573;51.290;6.926;2023-07-30T04:49:02;2.70;;;1.00;;
46835;SDS011;32573;51.290;6.926;2023-07-30T04:51:32;2.80;;;1.05;;
46835;SDS011;32573;51.290;6.926;2023-07-30T04:54:01;3.05;;;1.23;;
46835;SDS011;32573;51.290;6.926;2023-07-30T04:56:29;2.55;;;1.10;;
46835;SDS011;32573;51.290;6.926;2023-07-30T04:58:58;2.67;;;1.20;;
46835;SDS011;32573;51.290;6.926;2023-07-30T05:01:26;3.35;;;1.50;;
46835;SDS011;32573;51.290;6.926;2023-07-30T05:03:56;3.17;;;1.25;;
46835;SDS011;32573;51.290;6.926;2023-07-30T05:06:25;3.30;;;1.33;;
46835;SDS011;32573;51.290;6.926;2023-07-30T05:08:54;2.92;;;1.30;;
46835;SDS011;32573;51.290;6.926;2023-07-30T05:11:23;3.63;;;1.27;;
46835;SDS011;32573;51.290;6.926;2023-07-30T05:13:51;2.67;;;1.20;;
46835;SDS011;32573;51.290;6.926;2023-07-30T05:16:20;3.60;;;1.17;;
46835;SDS011;32573;51.290;6.926;2023-07-30T05:18:48;3.28;;;1.23;;
46835;SDS011;32573;51.290;6.926;2023-07-30T05:21:18;3.72;;;1.25;;
46835;SDS011;32573;51.290;6.926;2023-07-30T05:23:47;3.47;;;1.08;;
46835;SDS011;32573;51.290;6.926;2023-07-30T05:26:15;4.38;;;1.25;;
46835;SDS011;32573;51.290;6.926;2023-07-30T05:28:44;2.88;;;1.10;;
46835;SDS011;32573;51.290;6.926;2023-07-30T05:31:12;3.72;;;1.10;;
46835;SDS011;32573;51.290;6.926;2023-07-30T05:33:41;3.70;;;1.20;;
46835;SDS011;32573;51.290;6.926;2023-07-30T05:36:09;2.60;;;1.00;;
46835;SDS011;32573;51.290;6.926;2023-07-30T05:38:39;3.17;;;1.00;;
46835;SDS011;32573;51.290;6.926;2023-07-30T05:41:07;2.42;;;1.15;;
46835;SDS011;32573;51.290;6.926;2023-07-30T05:43:36;3.00;;;1.20;;
46835;SDS011;32573;51.290;6.926;2023-07-30T05:46:04;2.40;;;0.90;;
46835;SDS011;32573;51.290;6.926;2023-07-30T05:48:33;4.40;;;1.00;;
46835;SDS011;32573;51.290;6.926;2023-07-30T05:51:01;2.17;;;1.00;;
46835;SDS011;32573;51.290;6.926;2023-07-30T05:53:30;2.47;;;1.00;;
46835;SDS011;32573;51.290;6.926;2023-07-30T05:56:00;2.28;;;1.00;;
46835;SDS011;32573;51.290;6.926;2023-07-30T05:58:29;3.60;;;0.98;;
46835;SDS011;32573;51.290;6.926;2023-07-30T06:00:57;2.60;;;1.00;;
46835;SDS011;32573;51.290;6.926;2023-07-30T06:03:26;1.77;;;0.88;;
46835;SDS011;32573;51.290;6.926;2023-07-30T06:05:54;2.83;;;0.90;;
46835;SDS011;32573;51.290;6.926;2023-07-30T06:08:23;2.90;;;1.10;;
46835;SDS011;32573;51.290;6.926;2023-07-30T06:10:51;3.55;;;1.10;;
46835;SDS011;32573;51.290;6.926;2023-07-30T06:13:21;2.70;;;0.93;;
46835;SDS011;32573;51.290;6.926;2023-07-30T06:15:50;3.28;;;1.05;;
46835;SDS011;32573;51.290;6.926;2023-07-30T06:18:18;2.72;;;0.90;;
46835;SDS011;32573;51.290;6.926;2023-07-30T06:20:47;3.55;;;1.10;;
46835;SDS011;32573;51.290;6.926;2023-07-30T06:23:15;2.45;;;1.00;;
46835;SDS011;32573;51.290;6.926;2023-07-30T06:25:44;2.50;;;0.90;;
46835;SDS011;32573;51.290;6.926;2023-07-30T06:28:12;2.53;;;1.00;;
46835;SDS011;32573;51.290;6.926;2023-07-30T06:30:42;2.67;;;1.10;;
46835;SDS011;32573;51.290;6.926;2023-07-30T06:33:11;2.72;;;1.25;;
46835;SDS011;32573;51.290;6.926;2023-07-30T06:35:39;2.58;;;1.02;;
46835;SDS011;32573;51.290;6.926;2023-07-30T06:38:08;2.45;;;1.00;;
46835;SDS011;32573;51.290;6.926;2023-07-30T06:40:37;3.45;;;1.00;;
46835;SDS011;32573;51.290;6.926;2023-07-30T06:43:05;3.10;;;1.10;;
46835;SDS011;32573;51.290;6.926;2023-07-30T06:45:33;2.10;;;0.90;;
46835;SDS011;32573;51.290;6.926;2023-07-30T06:48:04;2.05;;;0.90;;
46835;SDS011;32573;51.290;6.926;2023-07-30T06:50:32;2.80;;;0.93;;
46835;SDS011;32573;51.290;6.926;2023-07-30T06:53:01;3.25;;;0.93;;
46835;SDS011;32573;51.290;6.926;2023-07-30T06:55:29;4.28;;;1.10;;
46835;SDS011;32573;51.290;6.926;2023-07-30T06:57:58;2.17;;;0.90;;
46835;SDS011;32573;51.290;6.926;2023-07-30T07:00:26;3.30;;;1.20;;
46835;SDS011;32573;51.290;6.926;2023-07-30T07:02:55;2.42;;;1.00;;
46835;SDS011;32573;51.290;6.926;2023-07-30T07:05:25;2.22;;;1.00;;
46835;SDS011;32573;51.290;6.926;2023-07-30T07:07:53;3.83;;;1.10;;
46835;SDS011;32573;51.290;6.926;2023-07-30T07:10:22;3.38;;;1.02;;
46835;SDS011;32573;51.290;6.926;2023-07-30T07:12:50;2.92;;;1.02;;
46835;SDS011;32573;51.290;6.926;2023-07-30T07:15:19;2.17;;;1.00;;
46835;SDS011;32573;51.290;6.926;2023-07-30T07:17:47;1.92;;;1.00;;
46835;SDS011;32573;51.290;6.926;2023-07-30T07:20:16;2.38;;;0.95;;
46835;SDS011;32573;51.290;6.926;2023-07-30T07:22:46;2.75;;;1.20;;
46835;SDS011;32573;51.290;6.926;2023-07-30T07:25:15;2.83;;;1.05;;
46835;SDS011;32573;51.290;6.926;2023-07-30T07:27:46;3.15;;;1.38;;
46835;SDS011;32573;51.290;6.926;2023-07-30T07:30:14;4.38;;;1.25;;
46835;SDS011;32573;51.290;6.926;2023-07-30T07:32:42;2.50;;;1.08;;
46835;SDS011;32573;51.290;6.926;2023-07-30T07:35:11;1.85;;;1.00;;
46835;SDS011;32573;51.290;6.926;2023-07-30T07:37:40;2.35;;;1.00;;
46835;SDS011;32573;51.290;6.926;2023-07-30T07:40:10;3.88;;;1.23;;
46835;SDS011;32573;51.290;6.926;2023-07-30T07:42:38;3.22;;;1.27;;
46835;SDS011;32573;51.290;6.926;2023-07-30T07:45:07;4.18;;;1.30;;
46835;SDS011;32573;51.290;6.926;2023-07-30T07:47:36;2.78;;;1.20;;
46835;SDS011;32573;51.290;6.926;2023-07-30T07:50:05;3.40;;;1.30;;
46835;SDS011;32573;51.290;6.926;2023-07-30T07:52:34;3.80;;;1.30;;
46835;SDS011;32573;51.290;6.926;2023-07-30T07:55:03;2.22;;;1.00;;
46835;SDS011;32573;51.290;6.926;2023-07-30T07:57:33;3.30;;;1.23;;
46835;SDS011;32573;51.290;6.926;2023-07-30T08:00:05;4.13;;;1.33;;
46835;SDS011;32573;51.290;6.926;2023-07-30T08:02:38;3.72;;;1.25;;
46835;SDS011;32573;51.290;6.926;2023-07-30T08:05:07;4.90;;;1.30;;
46835;SDS011;32573;51.290;6.926;2023-07-30T08:07:36;3.28;;;1.20;;
46835;SDS011;32573;51.290;6.926;2023-07-30T08:10:04;3.30;;;1.27;;
46835;SDS011;32573;51.290;6.926;2023-07-30T08:12:35;3.22;;;1.30;;
46835;SDS011;32573;51.290;6.926;2023-07-30T08:15:04;3.15;;;1.40;;
46835;SDS011;32573;51.290;6.926;2023-07-30T08:17:33;3.28;;;1.38;;
46835;SDS011;32573;51.290;6.926;2023-07-30T08:20:02;3.10;;;1.20;;
46835;SDS011;32573;51.290;6.926;2023-07-30T08:22:31;3.47;;;1.42;;
46835;SDS011;32573;51.290;6.926;2023-07-30T08:24:59;2.95;;;1.10;;
46835;SDS011;32573;51.290;6.926;2023-07-30T08:27:28;4.55;;;1.50;;
46835;SDS011;32573;51.290;6.926;2023-07-30T08:29:58;3.70;;;1.45;;
46835;SDS011;32573;51.290;6.926;2023-07-30T08:32:26;3.50;;;1.25;;
46835;SDS011;32573;51.290;6.926;2023-07-30T08:34:55;5.28;;;1.70;;
46835;SDS011;32573;51.290;6.926;2023-07-30T08:37:23;3.72;;;1.30;;
46835;SDS011;32573;51.290;6.926;2023-07-30T08:39:52;3.63;;;1.30;;
46835;SDS011;32573;51.290;6.926;2023-07-30T08:42:20;3.97;;;1.40;;
46835;SDS011;32573;51.290;6.926;2023-07-30T08:44:49;4.13;;;1.30;;
46835;SDS011;32573;51.290;6.926;2023-07-30T08:47:19;3.63;;;1.50;;
46835;SDS011;32573;51.290;6.926;2023-07-30T08:49:47;2.80;;;1.13;;
46835;SDS011;32573;51.290;6.926;2023-07-30T08:52:16;4.65;;;1.50;;
46835;SDS011;32573;51.290;6.926;2023-07-30T08:54:45;3.78;;;1.33;;
46835;SDS011;32573;51.290;6.926;2023-07-30T08:57:19;5.40;;;1.70;;
46835;SDS011;32573;51.290;6.926;2023-07-30T08:59:50;3.28;;;1.27;;
46835;SDS011;32573;51.290;6.926;2023-07-30T09:02:26;4.70;;;1.63;;
46835;SDS011;32573;51.290;6.926;2023-07-30T09:05:01;4.45;;;1.70;;
46835;SDS011;32573;51.290;6.926;2023-07-30T09:07:31;4.15;;;1.67;;
46835;SDS011;32573;51.290;6.926;2023-07-30T09:09:59;4.57;;;1.80;;
46835;SDS011;32573;51.290;6.926;2023-07-30T09:12:29;3.70;;;1.70;;
46835;SDS011;32573;51.290;6.926;2023-07-30T09:14:58;4.50;;;1.70;;
46835;SDS011;32573;51.290;6.926;2023-07-30T09:17:28;4.13;;;1.48;;
46835;SDS011;32573;51.290;6.926;2023-07-30T09:19:58;4.55;;;1.45;;
46835;SDS011;32573;51.290;6.926;2023-07-30T09:22:27;4.95;;;1.48;;
46835;SDS011;32573;51.290;6.926;2023-07-30T09:24:57;3.60;;;1.42;;
46835;SDS011;32573;51.290;6.926;2023-07-30T09:27:25;4.80;;;1.60;;
46835;SDS011;32573;51.290;6.926;2023-07-30T09:29:54;5.88;;;1.95;;
46835;SDS011;32573;51.290;6.926;2023-07-30T09:32:29;4.03;;;1.50;;
46835;SDS011;32573;51.290;6.926;2023-07-30T09:35:03;6.97;;;1.85;;
46835;SDS011;32573;51.290;6.926;2023-07-30T09:37:35;4.75;;;1.50;;
46835;SDS011;32573;51.290;6.926;2023-07-30T09:40:05;6.07;;;1.77;;
46835;SDS011;32573;51.290;6.926;2023-07-30T09:42:35;5.03;;;1.52;;
46835;SDS011;32573;51.290;6.926;2023-07-30T09:45:07;5.45;;;1.40;;
46835;SDS011;32573;51.290;6.926;2023-07-30T09:47:38;5.68;;;1.70;;
46835;SDS011;32573;51.290;6.926;2023-07-30T09:50:06;4.53;;;1.52;;
46835;SDS011;32573;51.290;6.926;2023-07-30T09:52:35;5.13;;;1.30;;
46835;SDS011;32573;51.290;6.926;2023-07-30T09:55:05;6.53;;;1.98;;
46835;SDS011;32573;51.290;6.926;2023-07-30T09:57:35;3.13;;;1.15;;
46835;SDS011;32573;51.290;6.926;2023-07-30T10:00:04;3.80;;;1.30;;
46835;SDS011;32573;51.290;6.926;2023-07-30T10:02:38;5.00;;;1.30;;
46835;SDS011;32573;51.290;6.926;2023-07-30T10:05:10;5.40;;;1.50;;
46835;SDS011;32573;51.290;6.926;2023-07-30T10:07:42;5.85;;;1.40;;
46835;SDS011;32573;51.290;6.926;2023-07-30T10:10:16;3.30;;;1.08;;
46835;SDS011;32573;51.290;6.926;2023-07-30T10:12:46;2.92;;;1.30;;
46835;SDS011;32573;51.290;6.926;2023-07-30T10:15:18;3.92;;;1.30;;
46835;SDS011;32573;51.290;6.926;2023-07-30T10:17:51;3.90;;;1.10;;
46835;SDS011;32573;51.290;6.926;2023-07-30T10:20:21;2.67;;;1.10;;
46835;SDS011;32573;51.290;6.926;2023-07-30T10:22:51;3.22;;;1.25;;
46835;SDS011;32573;51.290;6.926;2023-07-30T10:25:21;5.30;;;1.30;;
46835;SDS011;32573;51.290;6.926;2023-07-30T10:27:51;3.40;;;1.40;;
46835;SDS011;32573;51.290;6.926;2023-07-30T10:30:20;2.80;;;1.00;;
46835;SDS011;32573;51.290;6.926;2023-07-30T10:33:00;3.15;;;1.20;;
46835;SDS011;32573;51.290;6.926;2023-07-30T10:35:40;4.25;;;1.30;;
46835;SDS011;32573;51.290;6.926;2023-07-30T10:38:16;4.00;;;1.20;;
46835;SDS011;32573;51.290;6.926;2023-07-30T10:41:00;3.50;;;1.38;;
46835;SDS011;32573;51.290;6.926;2023-07-30T10:43:30;7.75;;;1.38;;
46835;SDS011;32573;51.290;6.926;2023-07-30T10:46:01;3.35;;;1.20;;
46835;SDS011;32573;51.290;6.926;2023-07-30T10:48:32;4.13;;;1.23;;
46835;SDS011;32573;51.290;6.926;2023-07-30T10:51:02;2.60;;;1.00;;
46835;SDS011;32573;51.290;6.926;2023-07-30T10:53:33;2.38;;;0.90;;
46835;SDS011;32573;51.290;6.926;2023-07-30T10:56:03;4.03;;;1.10;;
46835;SDS011;32573;51.290;6.926;2023-07-30T10:58:33;3.45;;;1.20;;
46835;SDS011;32573;51.290;6.926;2023-07-30T11:01:03;2.55;;;1.08;;
46835;SDS011;32573;51.290;6.926;2023-07-30T11:03:34;5.95;;;1.40;;
46835;SDS011;32573;51.290;6.926;2023-07-30T11:06:05;2.83;;;1.20;;
46835;SDS011;32573;51.290;6.926;2023-07-30T11:08:35;2.83;;;1.10;;
46835;SDS011;32573;51.290;6.926;2023-07-30T11:11:05;3.17;;;1.00;;
46835;SDS011;32573;51.290;6.926;2023-07-30T11:13:35;3.83;;;1.10;;
46835;SDS011;32573;51.290;6.926;2023-07-30T11:16:05;3.17;;;1.10;;
46835;SDS011;32573;51.290;6.926;2023-07-30T11:18:35;3.15;;;1.15;;
46835;SDS011;32573;51.290;6.926;2023-07-30T11:21:05;4.57;;;1.10;;
46835;SDS011;32573;51.290;6.926;2023-07-30T11:23:35;3.92;;;1.27;;
46835;SDS011;32573;51.290;6.926;2023-07-30T11:26:05;3.47;;;1.20;;
46835;SDS011;32573;51.290;6.926;2023-07-30T11:28:34;3.78;;;1.20;;
46835;SDS011;32573;51.290;6.926;2023-07-30T11:31:05;4.05;;;1.10;;
46835;SDS011;32573;51.290;6.926;2023-07-30T11:33:36;3.50;;;1.05;;
46835;SDS011;32573;51.290;6.926;2023-07-30T11:36:08;4.18;;;1.10;;
46835;SDS011;32573;51.290;6.926;2023-07-30T11:38:38;3.20;;;1.02;;
46835;SDS011;32573;51.290;6.926;2023-07-30T11:41:08;3.58;;;1.10;;
46835;SDS011;32573;51.290;6.926;2023-07-30T11:43:39;3.85;;;1.13;;
46835;SDS011;32573;51.290;6.926;2023-07-30T11:46:12;2.72;;;1.00;;
46835;SDS011;32573;51.290;6.926;2023-07-30T11:48:43;2.47;;;1.00;;
46835;SDS011;32573;51.290;6.926;2023-07-30T11:51:20;2.78;;;0.90;;
46835;SDS011;32573;51.290;6.926;2023-07-30T11:53:51;2.28;;;0.93;;
46835;SDS011;32573;51.290;6.926;2023-07-30T11:56:21;2.88;;;1.02;;
46835;SDS011;32573;51.290;6.926;2023-07-30T11:58:53;2.67;;;1.02;;
46835;SDS011;32573;51.290;6.926;2023-07-30T12:01:23;4.03;;;1.17;;
46835;SDS011;32573;51.290;6.926;2023-07-30T12:03:55;4.07;;;1.00;;
46835;SDS011;32573;51.290;6.926;2023-07-30T12:06:24;4.03;;;1.10;;
46835;SDS011;32573;51.290;6.926;2023-07-30T12:09:09;3.55;;;1.00;;
46835;SDS011;32573;51.290;6.926;2023-07-30T12:11:46;2.38;;;1.00;;
46835;SDS011;32573;51.290;6.926;2023-07-30T12:14:15;4.93;;;1.10;;
46835;SDS011;32573;51.290;6.926;2023-07-30T12:16:44;4.15;;;1.08;;
46835;SDS011;32573;51.290;6.926;2023-07-30T12:19:14;3.63;;;1.10;;
46835;SDS011;32573;51.290;6.926;2023-07-30T12:21:42;5.38;;;1.08;;
46835;SDS011;32573;51.290;6.926;2023-07-30T12:24:11;3.28;;;1.10;;
46835;SDS011;32573;51.290;6.926;2023-07-30T12:26:39;3.22;;;1.02;;
46835;SDS011;32573;51.290;6.926;2023-07-30T12:29:08;2.83;;;0.90;;
46835;SDS011;32573;51.290;6.926;2023-07-30T12:31:37;2.10;;;0.90;;
46835;SDS011;32573;51.290;6.926;2023-07-30T12:34:06;2.97;;;1.00;;
46835;SDS011;32573;51.290;6.926;2023-07-30T12:36:36;3.15;;;1.00;;
46835;SDS011;32573;51.290;6.926;2023-07-30T12:39:04;2.80;;;0.90;;
46835;SDS011;32573;51.290;6.926;2023-07-30T12:41:34;2.88;;;0.90;;
46835;SDS011;32573;51.290;6.926;2023-07-30T12:44:03;4.45;;;0.90;;
46835;SDS011;32573;51.290;6.926;2023-07-30T12:46:32;2.88;;;0.90;;
46835;SDS011;32573;51.290;6.926;2023-07-30T12:49:01;4.00;;;1.05;;
46835;SDS011;32573;51.290;6.926;2023-07-30T12:51:31;2.10;;;0.85;;
46835;SDS011;32573;51.290;6.926;2023-07-30T12:54:01;2.30;;;0.90;;
46835;SDS011;32573;51.290;6.926;2023-07-30T12:56:30;2.63;;;0.88;;
46835;SDS011;32573;51.290;6.926;2023-07-30T12:59:02;3.67;;;1.02;;
46835;SDS011;32573;51.290;6.926;2023-07-30T13:01:30;3.47;;;0.95;;
46835;SDS011;32573;51.290;6.926;2023-07-30T13:03:59;2.90;;;0.90;;
46835;SDS011;32573;51.290;6.926;2023-07-30T13:06:27;2.60;;;0.90;;
46835;SDS011;32573;51.290;6.926;2023-07-30T13:08:56;3.63;;;1.00;;
46835;SDS011;32573;51.290;6.926;2023-07-30T13:11:26;4.95;;;0.98;;
46835;SDS011;32573;51.290;6.926;2023-07-30T13:13:54;2.33;;;0.80;;
46835;SDS011;32573;51.290;6.926;2023-07-30T13:16:23;1.58;;;0.70;;
46835;SDS011;32573;51.290;6.926;2023-07-30T13:18:51;2.78;;;0.90;;
46835;SDS011;32573;51.290;6.926;2023-07-30T13:21:23;2.72;;;0.80;;
46835;SDS011;32573;51.290;6.926;2023-07-30T13:23:52;2.30;;;0.85;;
46835;SDS011;32573;51.290;6.926;2023-07-30T13:26:20;2.30;;;0.88;;
46835;SDS011;32573;51.290;6.926;2023-07-30T13:28:50;2.55;;;0.80;;
46835;SDS011;32573;51.290;6.926;2023-07-30T13:31:19;3.50;;;0.98;;
46835;SDS011;32573;51.290;6.926;2023-07-30T13:33:47;2.10;;;0.80;;
46835;SDS011;32573;51.290;6.926;2023-07-30T13:36:18;3.00;;;1.10;;
46835;SDS011;32573;51.290;6.926;2023-07-30T13:38:46;2.90;;;1.02;;
46835;SDS011;32573;51.290;6.926;2023-07-30T13:41:15;3.88;;;1.00;;
46835;SDS011;32573;51.290;6.926;2023-07-30T13:43:43;2.20;;;0.80;;
46835;SDS011;32573;51.290;6.926;2023-07-30T13:46:13;3.15;;;1.02;;
46835;SDS011;32573;51.290;6.926;2023-07-30T13:48:42;3.13;;;1.00;;
46835;SDS011;32573;51.290;6.926;2023-07-30T13:51:10;2.20;;;1.00;;
46835;SDS011;32573;51.290;6.926;2023-07-30T13:53:39;1.73;;;0.90;;
46835;SDS011;32573;51.290;6.926;2023-07-30T13:56:08;2.63;;;1.02;;
46835;SDS011;32573;51.290;6.926;2023-07-30T13:58:36;4.03;;;1.00;;
46835;SDS011;32573;51.290;6.926;2023-07-30T14:01:06;2.25;;;0.90;;
46835;SDS011;32573;51.290;6.926;2023-07-30T14:03:39;3.25;;;1.00;;
46835;SDS011;32573;51.290;6.926;2023-07-30T14:06:08;2.78;;;0.90;;
46835;SDS011;32573;51.290;6.926;2023-07-30T14:08:36;4.32;;;1.00;;
46835;SDS011;32573;51.290;6.926;2023-07-30T14:11:05;2.63;;;1.02;;
46835;SDS011;32573;51.290;6.926;2023-07-30T14:13:33;1.83;;;1.00;;
46835;SDS011;32573;51.290;6.926;2023-07-30T14:16:02;2.50;;;0.90;;
46835;SDS011;32573;51.290;6.926;2023-07-30T14:18:31;1.33;;;0.80;;
46835;SDS011;32573;51.290;6.926;2023-07-30T14:21:00;3.13;;;1.02;;
46835;SDS011;32573;51.290;6.926;2023-07-30T14:23:29;3.00;;;1.00;;
46835;SDS011;32573;51.290;6.926;2023-07-30T14:25:58;3.33;;;1.00;;
46835;SDS011;32573;51.290;6.926;2023-07-30T14:28:27;2.35;;;0.90;;
46835;SDS011;32573;51.290;6.926;2023-07-30T14:30:55;2.58;;;0.90;;
46835;SDS011;32573;51.290;6.926;2023-07-30T14:33:24;3.25;;;0.90;;
46835;SDS011;32573;51.290;6.926;2023-07-30T14:35:53;2.78;;;0.90;;
46835;SDS011;32573;51.290;6.926;2023-07-30T14:38:23;2.47;;;0.82;;
46835;SDS011;32573;51.290;6.926;2023-07-30T14:40:51;4.13;;;1.15;;
46835;SDS011;32573;51.290;6.926;2023-07-30T14:43:20;2.55;;;0.90;;
46835;SDS011;32573;51.290;6.926;2023-07-30T14:45:48;2.90;;;0.98;;
46835;SDS011;32573;51.290;6.926;2023-07-30T14:48:17;4.00;;;1.45;;
46835;SDS011;32573;51.290;6.926;2023-07-30T14:50:46;3.92;;;1.17;;
46835;SDS011;32573;51.290;6.926;2023-07-30T14:53:14;3.60;;;1.02;;
46835;SDS011;32573;51.290;6.926;2023-07-30T14:55:44;3.28;;;1.20;;
46835;SDS011;32573;51.290;6.926;2023-07-30T14:58:13;3.58;;;1.10;;
46835;SDS011;32573;51.290;6.926;2023-07-30T15:00:41;2.67;;;1.13;;